sensor_id;sensor_type;location;lat;lon;timestamp;temperature;humidity
16929;DHT22;8581;47.334;11.190;2022-08-24T00:00:10;10.00;99.90
16929;DHT22;8581;47.334;11.190;2022-08-24T00:02:41;9.90;99.90
16929;DHT22;8581;47.334;11.190;2022-08-24T00:05:12;9.70;99.90
16929;DHT22;8581;47.334;11.190;2022-08-24T00:07:44;9.70;99.90
16929;DHT22;8581;47.334;11.190;2022-08-24T00:10:16;9.70;99.90
16929;DHT22;8581;47.334;11.190;2022-08-24T00:12:47;9.60;99.90
16929;DHT22;8581;47.334;11.190;2022-08-24T00:15:19;9.50;99.90
16929;DHT22;8581;47.334;11.190;2022-08-24T00:17:50;9.50;99.90
16929;DHT22;8581;47.334;11.190;2022-08-24T00:20:22;9.50;99.90
16929;DHT22;8581;47.334;11.190;2022-08-24T00:22:54;9.40;99.90
16929;DHT22;8581;47.334;11.190;2022-08-24T00:25:25;9.30;99.90
16929;DHT22;8581;47.334;11.190;2022-08-24T00:27:57;9.30;99.90
16929;DHT22;8581;47.334;11.190;2022-08-24T00:30:30;9.40;99.90
16929;DHT22;8581;47.334;11.190;2022-08-24T00:33:01;9.50;99.90
16929;DHT22;8581;47.334;11.190;2022-08-24T00:35:33;9.50;99.90
16929;DHT22;8581;47.334;11.190;2022-08-24T00:38:04;9.50;99.90
16929;DHT22;8581;47.334;11.190;2022-08-24T00:40:43;9.40;99.90
16929;DHT22;8581;47.334;11.190;2022-08-24T00:43:08;9.20;99.90
16929;DHT22;8581;47.334;11.190;2022-08-24T00:45:41;9.20;99.90
16929;DHT22;8581;47.334;11.190;2022-08-24T00:48:14;9.10;99.90
16929;DHT22;8581;47.334;11.190;2022-08-24T00:50:48;9.10;99.90
16929;DHT22;8581;47.334;11.190;2022-08-24T00:53:23;9.10;99.90
16929;DHT22;8581;47.334;11.190;2022-08-24T00:55:53;9.20;99.90
16929;DHT22;8581;47.334;11.190;2022-08-24T00:58:30;9.10;99.90
16929;DHT22;8581;47.334;11.190;2022-08-24T01:01:00;9.10;99.90
16929;DHT22;8581;47.334;11.190;2022-08-24T01:03:31;9.10;99.90
16929;DHT22;8581;47.334;11.190;2022-08-24T01:06:03;9.10;99.90
16929;DHT22;8581;47.334;11.190;2022-08-24T01:08:35;9.10;99.90
16929;DHT22;8581;47.334;11.190;2022-08-24T01:11:09;9.10;99.90
16929;DHT22;8581;47.334;11.190;2022-08-24T01:13:38;9.00;99.90
16929;DHT22;8581;47.334;11.190;2022-08-24T01:16:09;8.90;99.90
16929;DHT22;8581;47.334;11.190;2022-08-24T01:18:41;9.00;99.90
16929;DHT22;8581;47.334;11.190;2022-08-24T01:21:22;9.00;99.90
16929;DHT22;8581;47.334;11.190;2022-08-24T01:23:54;8.90;99.90
16929;DHT22;8581;47.334;11.190;2022-08-24T01:26:27;8.70;99.90
16929;DHT22;8581;47.334;11.190;2022-08-24T01:29:00;8.70;99.90
16929;DHT22;8581;47.334;11.190;2022-08-24T01:31:31;8.60;99.90
16929;DHT22;8581;47.334;11.190;2022-08-24T01:34:02;8.80;99.90
16929;DHT22;8581;47.334;11.190;2022-08-24T01:36:38;8.80;99.90
16929;DHT22;8581;47.334;11.190;2022-08-24T01:39:13;8.80;99.90
16929;DHT22;8581;47.334;11.190;2022-08-24T01:41:41;8.70;99.90
16929;DHT22;8581;47.334;11.190;2022-08-24T01:44:13;8.60;99.90
16929;DHT22;8581;47.334;11.190;2022-08-24T01:46:45;8.50;99.90
16929;DHT22;8581;47.334;11.190;2022-08-24T01:49:16;8.70;99.90
16929;DHT22;8581;47.334;11.190;2022-08-24T01:51:48;8.50;99.90
16929;DHT22;8581;47.334;11.190;2022-08-24T01:54:19;8.40;99.90
16929;DHT22;8581;47.334;11.190;2022-08-24T01:56:51;8.40;99.90
16929;DHT22;8581;47.334;11.190;2022-08-24T01:59:22;8.30;99.90
16929;DHT22;8581;47.334;11.190;2022-08-24T02:01:55;8.30;99.90
16929;DHT22;8581;47.334;11.190;2022-08-24T02:04:26;8.30;99.90
16929;DHT22;8581;47.334;11.190;2022-08-24T02:06:57;8.20;99.90
16929;DHT22;8581;47.334;11.190;2022-08-24T02:09:29;8.20;99.90
16929;DHT22;8581;47.334;11.190;2022-08-24T02:12:01;8.20;99.90
16929;DHT22;8581;47.334;11.190;2022-08-24T02:14:32;8.30;99.90
16929;DHT22;8581;47.334;11.190;2022-08-24T02:17:04;8.30;99.90
16929;DHT22;8581;47.334;11.190;2022-08-24T02:19:35;8.40;99.90
16929;DHT22;8581;47.334;11.190;2022-08-24T02:22:07;8.40;99.90
16929;DHT22;8581;47.334;11.190;2022-08-24T02:24:39;8.30;99.90
16929;DHT22;8581;47.334;11.190;2022-08-24T02:27:10;8.30;99.90
16929;DHT22;8581;47.334;11.190;2022-08-24T02:29:42;8.20;99.90
16929;DHT22;8581;47.334;11.190;2022-08-24T02:32:14;8.10;99.90
16929;DHT22;8581;47.334;11.190;2022-08-24T02:34:45;8.10;99.90
16929;DHT22;8581;47.334;11.190;2022-08-24T02:37:17;8.10;99.90
16929;DHT22;8581;47.334;11.190;2022-08-24T02:39:48;8.20;99.90
16929;DHT22;8581;47.334;11.190;2022-08-24T02:42:20;8.20;99.90
16929;DHT22;8581;47.334;11.190;2022-08-24T02:44:52;8.20;99.90
16929;DHT22;8581;47.334;11.190;2022-08-24T02:47:23;8.10;99.90
16929;DHT22;8581;47.334;11.190;2022-08-24T02:49:55;8.10;99.90
16929;DHT22;8581;47.334;11.190;2022-08-24T02:52:27;8.10;99.90
16929;DHT22;8581;47.334;11.190;2022-08-24T02:54:58;8.00;99.90
16929;DHT22;8581;47.334;11.190;2022-08-24T02:57:30;7.90;99.90
16929;DHT22;8581;47.334;11.190;2022-08-24T03:00:03;7.90;99.90
16929;DHT22;8581;47.334;11.190;2022-08-24T03:02:34;7.80;99.90
16929;DHT22;8581;47.334;11.190;2022-08-24T03:05:07;7.80;99.90
16929;DHT22;8581;47.334;11.190;2022-08-24T03:07:39;7.80;99.90
16929;DHT22;8581;47.334;11.190;2022-08-24T03:10:10;7.90;99.90
16929;DHT22;8581;47.334;11.190;2022-08-24T03:12:42;7.90;99.90
16929;DHT22;8581;47.334;11.190;2022-08-24T03:15:14;7.90;99.90
16929;DHT22;8581;47.334;11.190;2022-08-24T03:17:45;8.00;99.90
16929;DHT22;8581;47.334;11.190;2022-08-24T03:20:19;8.00;99.90
16929;DHT22;8581;47.334;11.190;2022-08-24T03:22:49;7.90;99.90
16929;DHT22;8581;47.334;11.190;2022-08-24T03:25:21;7.90;99.90
16929;DHT22;8581;47.334;11.190;2022-08-24T03:27:52;7.90;99.90
16929;DHT22;8581;47.334;11.190;2022-08-24T03:30:24;7.90;99.90
16929;DHT22;8581;47.334;11.190;2022-08-24T03:32:56;7.90;99.90
16929;DHT22;8581;47.334;11.190;2022-08-24T03:35:27;7.90;99.90
16929;DHT22;8581;47.334;11.190;2022-08-24T03:37:59;7.90;99.90
16929;DHT22;8581;47.334;11.190;2022-08-24T03:40:30;7.80;99.90
16929;DHT22;8581;47.334;11.190;2022-08-24T03:43:03;7.90;99.90
16929;DHT22;8581;47.334;11.190;2022-08-24T03:45:34;8.10;99.90
16929;DHT22;8581;47.334;11.190;2022-08-24T03:48:06;7.90;99.90
16929;DHT22;8581;47.334;11.190;2022-08-24T03:50:38;7.90;99.90
16929;DHT22;8581;47.334;11.190;2022-08-24T03:53:09;7.80;99.90
16929;DHT22;8581;47.334;11.190;2022-08-24T03:55:41;7.70;99.90
16929;DHT22;8581;47.334;11.190;2022-08-24T03:58:12;7.90;99.90
16929;DHT22;8581;47.334;11.190;2022-08-24T04:00:44;7.90;99.90
16929;DHT22;8581;47.334;11.190;2022-08-24T04:03:16;8.10;99.90
16929;DHT22;8581;47.334;11.190;2022-08-24T04:05:47;8.00;99.90
16929;DHT22;8581;47.334;11.190;2022-08-24T04:08:19;8.00;99.90
16929;DHT22;8581;47.334;11.190;2022-08-24T04:10:50;7.90;99.90
16929;DHT22;8581;47.334;11.190;2022-08-24T04:13:22;7.80;99.90
16929;DHT22;8581;47.334;11.190;2022-08-24T04:15:54;7.90;99.90
16929;DHT22;8581;47.334;11.190;2022-08-24T04:18:25;8.00;99.90
16929;DHT22;8581;47.334;11.190;2022-08-24T04:20:57;8.10;99.90
16929;DHT22;8581;47.334;11.190;2022-08-24T04:23:28;8.20;99.90
16929;DHT22;8581;47.334;11.190;2022-08-24T04:26:01;8.30;99.90
16929;DHT22;8581;47.334;11.190;2022-08-24T04:28:32;8.30;99.90
16929;DHT22;8581;47.334;11.190;2022-08-24T04:31:04;8.30;99.90
16929;DHT22;8581;47.334;11.190;2022-08-24T04:33:35;8.20;99.90
16929;DHT22;8581;47.334;11.190;2022-08-24T04:36:07;8.20;99.90
16929;DHT22;8581;47.334;11.190;2022-08-24T04:38:39;8.30;99.90
16929;DHT22;8581;47.334;11.190;2022-08-24T04:41:11;8.10;99.90
16929;DHT22;8581;47.334;11.190;2022-08-24T04:43:42;8.00;99.90
16929;DHT22;8581;47.334;11.190;2022-08-24T04:46:15;7.90;99.90
16929;DHT22;8581;47.334;11.190;2022-08-24T04:48:47;8.00;99.90
16929;DHT22;8581;47.334;11.190;2022-08-24T04:51:18;8.00;99.90
16929;DHT22;8581;47.334;11.190;2022-08-24T04:53:49;8.00;99.90
16929;DHT22;8581;47.334;11.190;2022-08-24T04:56:21;8.10;99.90
16929;DHT22;8581;47.334;11.190;2022-08-24T04:58:52;8.20;99.90
16929;DHT22;8581;47.334;11.190;2022-08-24T05:01:25;8.30;99.90
16929;DHT22;8581;47.334;11.190;2022-08-24T05:03:55;8.40;99.90
16929;DHT22;8581;47.334;11.190;2022-08-24T05:06:28;8.50;99.90
16929;DHT22;8581;47.334;11.190;2022-08-24T05:08:59;8.50;99.90
16929;DHT22;8581;47.334;11.190;2022-08-24T05:11:30;8.70;99.90
16929;DHT22;8581;47.334;11.190;2022-08-24T05:14:02;8.60;99.90
16929;DHT22;8581;47.334;11.190;2022-08-24T05:16:33;8.50;99.90
16929;DHT22;8581;47.334;11.190;2022-08-24T05:19:05;8.40;99.90
16929;DHT22;8581;47.334;11.190;2022-08-24T05:21:37;8.40;99.90
16929;DHT22;8581;47.334;11.190;2022-08-24T05:24:09;8.40;99.90
16929;DHT22;8581;47.334;11.190;2022-08-24T05:26:41;8.40;99.90
16929;DHT22;8581;47.334;11.190;2022-08-24T05:29:12;8.50;99.90
16929;DHT22;8581;47.334;11.190;2022-08-24T05:31:44;8.50;99.90
16929;DHT22;8581;47.334;11.190;2022-08-24T05:34:16;8.50;99.90
16929;DHT22;8581;47.334;11.190;2022-08-24T05:36:47;8.40;99.90
16929;DHT22;8581;47.334;11.190;2022-08-24T05:39:19;8.50;99.90
16929;DHT22;8581;47.334;11.190;2022-08-24T05:41:50;8.60;99.90
16929;DHT22;8581;47.334;11.190;2022-08-24T05:44:22;8.60;99.90
16929;DHT22;8581;47.334;11.190;2022-08-24T05:46:54;8.60;99.90
16929;DHT22;8581;47.334;11.190;2022-08-24T05:49:25;8.80;99.90
16929;DHT22;8581;47.334;11.190;2022-08-24T05:51:57;8.90;99.90
16929;DHT22;8581;47.334;11.190;2022-08-24T05:54:28;8.90;99.90
16929;DHT22;8581;47.334;11.190;2022-08-24T05:57:00;9.00;99.90
16929;DHT22;8581;47.334;11.190;2022-08-24T05:59:32;8.90;99.90
16929;DHT22;8581;47.334;11.190;2022-08-24T06:02:04;9.10;99.90
16929;DHT22;8581;47.334;11.190;2022-08-24T06:04:36;9.00;99.90
16929;DHT22;8581;47.334;11.190;2022-08-24T06:07:07;9.20;99.90
16929;DHT22;8581;47.334;11.190;2022-08-24T06:09:39;9.40;99.90
16929;DHT22;8581;47.334;11.190;2022-08-24T06:12:11;9.60;99.90
16929;DHT22;8581;47.334;11.190;2022-08-24T06:14:44;9.90;99.90
16929;DHT22;8581;47.334;11.190;2022-08-24T06:17:14;10.10;99.90
16929;DHT22;8581;47.334;11.190;2022-08-24T06:19:45;10.40;99.90
16929;DHT22;8581;47.334;11.190;2022-08-24T06:22:17;10.70;99.90
16929;DHT22;8581;47.334;11.190;2022-08-24T06:24:49;11.00;99.90
16929;DHT22;8581;47.334;11.190;2022-08-24T06:27:26;11.20;99.90
16929;DHT22;8581;47.334;11.190;2022-08-24T06:29:59;11.40;99.90
16929;DHT22;8581;47.334;11.190;2022-08-24T06:32:29;11.60;99.90
16929;DHT22;8581;47.334;11.190;2022-08-24T06:35:01;11.80;99.90
16929;DHT22;8581;47.334;11.190;2022-08-24T06:37:33;11.90;99.90
16929;DHT22;8581;47.334;11.190;2022-08-24T06:40:05;12.10;99.90
16929;DHT22;8581;47.334;11.190;2022-08-24T06:42:37;12.30;99.90
16929;DHT22;8581;47.334;11.190;2022-08-24T06:45:09;12.50;99.90
16929;DHT22;8581;47.334;11.190;2022-08-24T06:47:41;12.70;99.90
16929;DHT22;8581;47.334;11.190;2022-08-24T06:50:13;12.80;99.90
16929;DHT22;8581;47.334;11.190;2022-08-24T06:52:44;13.00;99.90
16929;DHT22;8581;47.334;11.190;2022-08-24T06:55:16;13.20;99.90
16929;DHT22;8581;47.334;11.190;2022-08-24T06:57:47;13.30;99.90
16929;DHT22;8581;47.334;11.190;2022-08-24T07:00:19;13.40;99.90
16929;DHT22;8581;47.334;11.190;2022-08-24T07:02:51;13.60;99.90
16929;DHT22;8581;47.334;11.190;2022-08-24T07:05:22;13.70;99.90
16929;DHT22;8581;47.334;11.190;2022-08-24T07:07:54;13.90;99.90
16929;DHT22;8581;47.334;11.190;2022-08-24T07:10:26;13.90;99.90
16929;DHT22;8581;47.334;11.190;2022-08-24T07:12:57;14.10;99.90
16929;DHT22;8581;47.334;11.190;2022-08-24T07:15:29;14.10;99.90
16929;DHT22;8581;47.334;11.190;2022-08-24T07:18:00;14.30;99.90
16929;DHT22;8581;47.334;11.190;2022-08-24T07:20:32;14.40;99.90
16929;DHT22;8581;47.334;11.190;2022-08-24T07:23:04;14.60;99.90
16929;DHT22;8581;47.334;11.190;2022-08-24T07:25:35;14.60;99.90
16929;DHT22;8581;47.334;11.190;2022-08-24T07:28:07;14.70;99.90
16929;DHT22;8581;47.334;11.190;2022-08-24T07:30:39;15.00;99.90
16929;DHT22;8581;47.334;11.190;2022-08-24T07:33:11;15.10;99.90
16929;DHT22;8581;47.334;11.190;2022-08-24T07:35:43;15.20;99.90
16929;DHT22;8581;47.334;11.190;2022-08-24T07:38:14;15.30;99.90
16929;DHT22;8581;47.334;11.190;2022-08-24T07:40:46;15.20;99.90
16929;DHT22;8581;47.334;11.190;2022-08-24T07:43:17;15.40;99.90
16929;DHT22;8581;47.334;11.190;2022-08-24T07:45:49;15.50;99.90
16929;DHT22;8581;47.334;11.190;2022-08-24T07:48:21;15.80;99.90
16929;DHT22;8581;47.334;11.190;2022-08-24T07:50:52;15.80;99.90
16929;DHT22;8581;47.334;11.190;2022-08-24T07:53:24;15.80;99.90
16929;DHT22;8581;47.334;11.190;2022-08-24T07:55:55;16.00;99.90
16929;DHT22;8581;47.334;11.190;2022-08-24T07:58:27;15.80;99.90
16929;DHT22;8581;47.334;11.190;2022-08-24T08:00:59;16.10;99.90
16929;DHT22;8581;47.334;11.190;2022-08-24T08:03:31;16.40;99.90
16929;DHT22;8581;47.334;11.190;2022-08-24T08:06:03;16.50;99.90
16929;DHT22;8581;47.334;11.190;2022-08-24T08:08:35;16.50;99.90
16929;DHT22;8581;47.334;11.190;2022-08-24T08:11:06;16.70;99.90
16929;DHT22;8581;47.334;11.190;2022-08-24T08:13:38;16.90;99.90
16929;DHT22;8581;47.334;11.190;2022-08-24T08:16:10;17.10;99.90
16929;DHT22;8581;47.334;11.190;2022-08-24T08:18:42;16.90;99.90
16929;DHT22;8581;47.334;11.190;2022-08-24T08:21:13;17.10;99.90
16929;DHT22;8581;47.334;11.190;2022-08-24T08:23:52;17.20;99.90
16929;DHT22;8581;47.334;11.190;2022-08-24T08:26:28;17.40;99.90
16929;DHT22;8581;47.334;11.190;2022-08-24T08:28:59;17.60;99.90
16929;DHT22;8581;47.334;11.190;2022-08-24T08:31:31;17.70;99.90
16929;DHT22;8581;47.334;11.190;2022-08-24T08:34:03;17.90;99.90
16929;DHT22;8581;47.334;11.190;2022-08-24T08:36:35;18.10;99.90
16929;DHT22;8581;47.334;11.190;2022-08-24T08:39:07;18.00;99.90
16929;DHT22;8581;47.334;11.190;2022-08-24T08:43:00;18.20;99.90
16929;DHT22;8581;47.334;11.190;2022-08-24T08:44:45;18.20;99.90
16929;DHT22;8581;47.334;11.190;2022-08-24T08:50:12;18.60;99.90
16929;DHT22;8581;47.334;11.190;2022-08-24T08:52:53;18.80;99.90
16929;DHT22;8581;47.334;11.190;2022-08-24T08:55:30;19.10;99.90
16929;DHT22;8581;47.334;11.190;2022-08-24T08:58:11;19.40;99.90
16929;DHT22;8581;47.334;11.190;2022-08-24T09:00:46;19.50;99.90
16929;DHT22;8581;47.334;11.190;2022-08-24T09:03:28;19.60;99.90
16929;DHT22;8581;47.334;11.190;2022-08-24T09:06:18;19.90;99.90
16929;DHT22;8581;47.334;11.190;2022-08-24T09:11:50;20.60;99.90
16929;DHT22;8581;47.334;11.190;2022-08-24T09:14:45;20.60;99.90
16929;DHT22;8581;47.334;11.190;2022-08-24T09:21:01;21.20;99.90
16929;DHT22;8581;47.334;11.190;2022-08-24T09:23:34;21.90;99.90
16929;DHT22;8581;47.334;11.190;2022-08-24T09:26:22;22.40;99.90
16929;DHT22;8581;47.334;11.190;2022-08-24T09:28:57;23.00;99.90
16929;DHT22;8581;47.334;11.190;2022-08-24T09:31:32;23.40;99.90
16929;DHT22;8581;47.334;11.190;2022-08-24T09:34:15;23.80;99.90
16929;DHT22;8581;47.334;11.190;2022-08-24T09:36:54;23.90;99.90
16929;DHT22;8581;47.334;11.190;2022-08-24T09:42:24;23.80;99.90
16929;DHT22;8581;47.334;11.190;2022-08-24T09:45:16;24.20;99.90
16929;DHT22;8581;47.334;11.190;2022-08-24T09:49:00;24.60;99.90
16929;DHT22;8581;47.334;11.190;2022-08-24T09:50:45;25.00;98.00
16929;DHT22;8581;47.334;11.190;2022-08-24T09:53:56;25.20;97.40
16929;DHT22;8581;47.334;11.190;2022-08-24T09:59:20;25.80;97.00
16929;DHT22;8581;47.334;11.190;2022-08-24T10:04:49;26.20;95.00
16929;DHT22;8581;47.334;11.190;2022-08-24T10:07:20;26.40;93.00
16929;DHT22;8581;47.334;11.190;2022-08-24T10:10:08;26.30;93.10
16929;DHT22;8581;47.334;11.190;2022-08-24T10:12:55;26.60;94.80
16929;DHT22;8581;47.334;11.190;2022-08-24T10:15:28;27.10;93.40
16929;DHT22;8581;47.334;11.190;2022-08-24T10:18:10;27.80;92.40
16929;DHT22;8581;47.334;11.190;2022-08-24T10:21:17;28.50;91.40
16929;DHT22;8581;47.334;11.190;2022-08-24T10:23:40;28.30;90.50
16929;DHT22;8581;47.334;11.190;2022-08-24T10:26:12;28.40;90.70
16929;DHT22;8581;47.334;11.190;2022-08-24T10:31:30;28.50;89.30
16929;DHT22;8581;47.334;11.190;2022-08-24T10:37:04;30.10;83.20
16929;DHT22;8581;47.334;11.190;2022-08-24T10:42:36;29.40;80.60
16929;DHT22;8581;47.334;11.190;2022-08-24T10:48:25;29.70;78.10
16929;DHT22;8581;47.334;11.190;2022-08-24T10:50:55;30.40;75.30
16929;DHT22;8581;47.334;11.190;2022-08-24T10:53:27;30.30;71.30
16929;DHT22;8581;47.334;11.190;2022-08-24T10:56:09;30.20;69.10
16929;DHT22;8581;47.334;11.190;2022-08-24T10:58:51;30.40;70.50
16929;DHT22;8581;47.334;11.190;2022-08-24T11:04:10;30.90;68.10
16929;DHT22;8581;47.334;11.190;2022-08-24T11:06:43;31.20;78.50
16929;DHT22;8581;47.334;11.190;2022-08-24T11:09:14;33.20;71.60
16929;DHT22;8581;47.334;11.190;2022-08-24T11:11:46;34.40;69.20
16929;DHT22;8581;47.334;11.190;2022-08-24T11:14:24;33.50;62.50
16929;DHT22;8581;47.334;11.190;2022-08-24T11:19:33;34.30;62.00
16929;DHT22;8581;47.334;11.190;2022-08-24T11:22:25;35.00;60.30
16929;DHT22;8581;47.334;11.190;2022-08-24T11:24:41;35.60;65.40
16929;DHT22;8581;47.334;11.190;2022-08-24T11:27:29;35.80;63.20
16929;DHT22;8581;47.334;11.190;2022-08-24T11:30:00;36.10;59.70
16929;DHT22;8581;47.334;11.190;2022-08-24T11:32:41;36.90;60.40
16929;DHT22;8581;47.334;11.190;2022-08-24T11:35:18;36.20;61.50
16929;DHT22;8581;47.334;11.190;2022-08-24T11:37:47;34.50;64.60
16929;DHT22;8581;47.334;11.190;2022-08-24T11:40:19;33.80;65.20
16929;DHT22;8581;47.334;11.190;2022-08-24T11:42:54;34.40;62.00
16929;DHT22;8581;47.334;11.190;2022-08-24T11:45:27;35.60;64.10
16929;DHT22;8581;47.334;11.190;2022-08-24T11:48:34;36.70;61.40
16929;DHT22;8581;47.334;11.190;2022-08-24T11:51:02;37.10;64.50
16929;DHT22;8581;47.334;11.190;2022-08-24T11:53:36;36.60;62.70
16929;DHT22;8581;47.334;11.190;2022-08-24T11:56:18;34.60;63.20
16929;DHT22;8581;47.334;11.190;2022-08-24T11:59:05;35.00;63.60
16929;DHT22;8581;47.334;11.190;2022-08-24T12:01:52;35.90;61.90
16929;DHT22;8581;47.334;11.190;2022-08-24T12:04:41;37.30;59.20
16929;DHT22;8581;47.334;11.190;2022-08-24T12:07:17;36.70;60.20
16929;DHT22;8581;47.334;11.190;2022-08-24T12:09:51;37.80;58.90
16929;DHT22;8581;47.334;11.190;2022-08-24T12:12:26;38.10;56.90
16929;DHT22;8581;47.334;11.190;2022-08-24T12:15:15;38.80;58.80
16929;DHT22;8581;47.334;11.190;2022-08-24T12:17:48;37.60;57.80
16929;DHT22;8581;47.334;11.190;2022-08-24T12:20:36;37.90;58.20
16929;DHT22;8581;47.334;11.190;2022-08-24T12:23:25;37.60;58.50
16929;DHT22;8581;47.334;11.190;2022-08-24T12:26:13;37.90;58.90
16929;DHT22;8581;47.334;11.190;2022-08-24T12:28:46;37.90;56.90
16929;DHT22;8581;47.334;11.190;2022-08-24T12:31:37;37.90;57.30
16929;DHT22;8581;47.334;11.190;2022-08-24T12:34:10;39.30;56.00
16929;DHT22;8581;47.334;11.190;2022-08-24T12:39:38;39.00;56.30
16929;DHT22;8581;47.334;11.190;2022-08-24T12:42:18;39.50;56.10
16929;DHT22;8581;47.334;11.190;2022-08-24T12:44:59;39.70;58.20
16929;DHT22;8581;47.334;11.190;2022-08-24T12:47:38;40.40;53.20
16929;DHT22;8581;47.334;11.190;2022-08-24T12:53:11;40.70;53.50
16929;DHT22;8581;47.334;11.190;2022-08-24T12:55:53;40.50;54.20
16929;DHT22;8581;47.334;11.190;2022-08-24T12:58:46;40.50;55.10
16929;DHT22;8581;47.334;11.190;2022-08-24T13:01:14;40.10;54.10
16929;DHT22;8581;47.334;11.190;2022-08-24T13:03:47;40.10;55.30
16929;DHT22;8581;47.334;11.190;2022-08-24T13:06:24;40.00;52.90
16929;DHT22;8581;47.334;11.190;2022-08-24T13:08:51;40.20;54.00
16929;DHT22;8581;47.334;11.190;2022-08-24T13:11:31;39.80;54.20
16929;DHT22;8581;47.334;11.190;2022-08-24T13:14:15;41.00;53.70
16929;DHT22;8581;47.334;11.190;2022-08-24T13:16:45;39.90;55.30
16929;DHT22;8581;47.334;11.190;2022-08-24T13:19:34;40.50;52.90
16929;DHT22;8581;47.334;11.190;2022-08-24T13:25:22;40.10;54.40
16929;DHT22;8581;47.334;11.190;2022-08-24T13:28:05;39.90;54.80
16929;DHT22;8581;47.334;11.190;2022-08-24T13:30:49;40.60;54.90
16929;DHT22;8581;47.334;11.190;2022-08-24T13:33:08;41.70;52.90
16929;DHT22;8581;47.334;11.190;2022-08-24T13:35:53;42.70;51.10
16929;DHT22;8581;47.334;11.190;2022-08-24T13:41:25;42.10;53.30
16929;DHT22;8581;47.334;11.190;2022-08-24T13:44:06;41.00;52.60
16929;DHT22;8581;47.334;11.190;2022-08-24T13:49:24;41.20;54.20
16929;DHT22;8581;47.334;11.190;2022-08-24T13:54:36;40.80;53.00
16929;DHT22;8581;47.334;11.190;2022-08-24T13:57:08;41.10;53.00
16929;DHT22;8581;47.334;11.190;2022-08-24T13:59:56;40.50;53.20
16929;DHT22;8581;47.334;11.190;2022-08-24T14:05:49;42.50;52.20
16929;DHT22;8581;47.334;11.190;2022-08-24T14:08:35;42.00;51.50
16929;DHT22;8581;47.334;11.190;2022-08-24T14:11:07;41.20;52.80
16929;DHT22;8581;47.334;11.190;2022-08-24T14:16:34;41.30;54.20
16929;DHT22;8581;47.334;11.190;2022-08-24T14:19:19;40.40;53.10
16929;DHT22;8581;47.334;11.190;2022-08-24T14:21:50;40.90;53.00
16929;DHT22;8581;47.334;11.190;2022-08-24T14:24:26;41.20;52.20
16929;DHT22;8581;47.334;11.190;2022-08-24T14:26:59;40.50;54.00
16929;DHT22;8581;47.334;11.190;2022-08-24T14:29:31;41.20;53.40
16929;DHT22;8581;47.334;11.190;2022-08-24T14:35:12;41.80;52.10
16929;DHT22;8581;47.334;11.190;2022-08-24T14:37:45;42.40;51.40
16929;DHT22;8581;47.334;11.190;2022-08-24T14:40:19;41.90;50.90
16929;DHT22;8581;47.334;11.190;2022-08-24T14:42:57;41.90;53.30
16929;DHT22;8581;47.334;11.190;2022-08-24T14:45:53;41.50;52.60
16929;DHT22;8581;47.334;11.190;2022-08-24T14:48:26;41.70;53.30
16929;DHT22;8581;47.334;11.190;2022-08-24T14:53:56;41.30;52.90
16929;DHT22;8581;47.334;11.190;2022-08-24T14:56:47;41.40;52.90
16929;DHT22;8581;47.334;11.190;2022-08-24T14:59:38;42.00;51.70
16929;DHT22;8581;47.334;11.190;2022-08-24T15:04:51;40.80;53.30
16929;DHT22;8581;47.334;11.190;2022-08-24T15:07:32;41.40;52.80
16929;DHT22;8581;47.334;11.190;2022-08-24T15:10:09;40.60;53.30
16929;DHT22;8581;47.334;11.190;2022-08-24T15:12:38;40.50;53.60
16929;DHT22;8581;47.334;11.190;2022-08-24T15:15:12;40.10;54.90
16929;DHT22;8581;47.334;11.190;2022-08-24T15:17:50;40.60;53.50
16929;DHT22;8581;47.334;11.190;2022-08-24T15:20:28;40.40;54.00
16929;DHT22;8581;47.334;11.190;2022-08-24T15:22:57;40.00;54.60
16929;DHT22;8581;47.334;11.190;2022-08-24T15:25:33;41.50;53.50
16929;DHT22;8581;47.334;11.190;2022-08-24T15:28:20;39.50;55.40
16929;DHT22;8581;47.334;11.190;2022-08-24T15:30:40;39.50;55.40
16929;DHT22;8581;47.334;11.190;2022-08-24T15:33:14;39.80;54.10
16929;DHT22;8581;47.334;11.190;2022-08-24T15:35:48;38.50;55.00
16929;DHT22;8581;47.334;11.190;2022-08-24T15:38:20;40.30;53.80
16929;DHT22;8581;47.334;11.190;2022-08-24T15:40:51;39.50;54.70
16929;DHT22;8581;47.334;11.190;2022-08-24T15:43:22;39.20;54.80
16929;DHT22;8581;47.334;11.190;2022-08-24T15:45:54;39.50;53.90
16929;DHT22;8581;47.334;11.190;2022-08-24T15:48:25;38.90;54.70
16929;DHT22;8581;47.334;11.190;2022-08-24T15:50:57;39.40;54.20
16929;DHT22;8581;47.334;11.190;2022-08-24T15:53:37;39.10;54.00
16929;DHT22;8581;47.334;11.190;2022-08-24T15:56:27;38.60;54.70
16929;DHT22;8581;47.334;11.190;2022-08-24T15:59:08;39.10;54.50
16929;DHT22;8581;47.334;11.190;2022-08-24T16:01:38;38.50;55.50
16929;DHT22;8581;47.334;11.190;2022-08-24T16:06:52;38.40;55.60
16929;DHT22;8581;47.334;11.190;2022-08-24T16:09:34;37.80;55.10
16929;DHT22;8581;47.334;11.190;2022-08-24T16:12:08;36.80;57.20
16929;DHT22;8581;47.334;11.190;2022-08-24T16:14:45;37.60;56.00
16929;DHT22;8581;47.334;11.190;2022-08-24T16:17:26;37.00;56.20
16929;DHT22;8581;47.334;11.190;2022-08-24T16:19:56;36.60;57.20
16929;DHT22;8581;47.334;11.190;2022-08-24T16:22:33;37.10;56.50
16929;DHT22;8581;47.334;11.190;2022-08-24T16:25:11;36.20;56.70
16929;DHT22;8581;47.334;11.190;2022-08-24T16:27:53;36.20;58.00
16929;DHT22;8581;47.334;11.190;2022-08-24T16:30:25;35.10;59.30
16929;DHT22;8581;47.334;11.190;2022-08-24T16:32:56;35.90;58.50
16929;DHT22;8581;47.334;11.190;2022-08-24T16:35:26;34.90;59.20
16929;DHT22;8581;47.334;11.190;2022-08-24T16:37:58;35.50;58.30
16929;DHT22;8581;47.334;11.190;2022-08-24T16:40:30;35.00;58.70
16929;DHT22;8581;47.334;11.190;2022-08-24T16:43:01;34.40;59.10
16929;DHT22;8581;47.334;11.190;2022-08-24T16:45:33;35.00;59.00
16929;DHT22;8581;47.334;11.190;2022-08-24T16:48:04;35.10;58.70
16929;DHT22;8581;47.334;11.190;2022-08-24T16:50:36;34.50;59.00
16929;DHT22;8581;47.334;11.190;2022-08-24T16:53:08;34.30;59.00
16929;DHT22;8581;47.334;11.190;2022-08-24T16:55:39;33.20;61.20
16929;DHT22;8581;47.334;11.190;2022-08-24T16:58:11;33.10;60.90
16929;DHT22;8581;47.334;11.190;2022-08-24T17:00:43;32.70;62.00
16929;DHT22;8581;47.334;11.190;2022-08-24T17:03:15;32.90;59.80
16929;DHT22;8581;47.334;11.190;2022-08-24T17:05:47;32.90;62.00
16929;DHT22;8581;47.334;11.190;2022-08-24T17:08:19;32.10;60.90
16929;DHT22;8581;47.334;11.190;2022-08-24T17:10:51;31.90;61.90
16929;DHT22;8581;47.334;11.190;2022-08-24T17:13:22;31.30;64.30
16929;DHT22;8581;47.334;11.190;2022-08-24T17:15:54;31.50;63.80
16929;DHT22;8581;47.334;11.190;2022-08-24T17:18:26;31.10;64.80
16929;DHT22;8581;47.334;11.190;2022-08-24T17:20:57;30.80;65.20
16929;DHT22;8581;47.334;11.190;2022-08-24T17:23:29;30.20;65.80
16929;DHT22;8581;47.334;11.190;2022-08-24T17:26:01;28.90;68.30
16929;DHT22;8581;47.334;11.190;2022-08-24T17:28:32;27.50;70.90
16929;DHT22;8581;47.334;11.190;2022-08-24T17:31:05;26.30;73.20